createdAt,value
2016-08-06T00:00:04.175Z,73.32
2016-08-06T00:01:04.224Z,73.41
2016-08-06T00:02:04.220Z,73.41
2016-08-06T00:03:04.263Z,73.13
2016-08-06T00:04:04.275Z,73.51
2016-08-06T00:05:04.294Z,73.7
2016-08-06T00:06:04.342Z,73.51
2016-08-06T00:07:04.349Z,73.41
2016-08-06T00:08:04.372Z,73.99
2016-08-06T00:09:05.103Z,74.08
2016-08-06T00:10:04.415Z,73.8
2016-08-06T00:11:04.439Z,73.7
2016-08-06T00:12:04.514Z,73.7
2016-08-06T00:13:04.535Z,73.9
2016-08-06T00:14:05.377Z,74.85
2016-08-06T00:16:04.658Z,74.08
2016-08-06T00:17:04.594Z,74.57
2016-08-06T00:18:04.607Z,73.9
2016-08-06T00:19:04.631Z,73.7
2016-08-06T00:20:04.655Z,73.95
2016-08-06T00:21:05.397Z,73.86
2016-08-06T00:22:04.702Z,73.86
2016-08-06T00:23:04.785Z,73.95
2016-08-06T00:24:04.749Z,74.62
2016-08-06T00:25:04.774Z,73.76
2016-08-06T00:26:04.821Z,73.99
2016-08-06T00:27:04.823Z,74.27
2016-08-06T00:28:04.843Z,74.43
2016-08-06T00:29:04.930Z,74.82
2016-08-06T00:31:04.917Z,73.47
2016-08-06T00:32:04.941Z,74.85
2016-08-06T00:33:04.966Z,74.76
2016-08-06T00:34:05.041Z,74.47
2016-08-06T00:35:05.731Z,74.08
2016-08-06T00:36:05.035Z,73.9
2016-08-06T00:37:05.769Z,73.9
2016-08-06T00:38:05.094Z,73.99
2016-08-06T00:39:05.110Z,73.99
2016-08-06T00:40:05.132Z,74.27
2016-08-06T00:41:05.257Z,73.8
2016-08-06T00:42:05.193Z,73.8
2016-08-06T00:43:05.965Z,73.22
2016-08-06T00:44:05.231Z,73.61
2016-08-06T00:45:05.255Z,73.99
2016-08-06T00:46:05.275Z,74.66
2016-08-06T00:47:05.302Z,73.8
2016-08-06T00:48:05.324Z,74.08
2016-08-06T00:49:05.350Z,74.66
2016-08-06T00:50:05.371Z,74.37
2016-08-06T00:51:06.105Z,74.47
2016-08-06T00:52:05.420Z,74.66
2016-08-06T00:53:06.188Z,73.9
2016-08-06T00:54:05.467Z,74.18
2016-08-06T00:55:05.496Z,74.18
2016-08-06T00:56:06.235Z,73.7
2016-08-06T00:57:05.539Z,73.9
2016-08-06T00:58:05.561Z,74.08
2016-08-06T00:59:05.587Z,73.22
2016-08-06T01:00:05.615Z,73.7
2016-08-06T01:01:05.648Z,73.61
2016-08-06T01:02:05.665Z,74.08
2016-08-06T01:03:05.733Z,74.66
2016-08-06T01:04:05.707Z,74.57
2016-08-06T01:05:05.728Z,74.18
2016-08-06T01:06:05.757Z,74.08
2016-08-06T01:07:05.778Z,73.9
2016-08-06T01:08:05.804Z,74.08
2016-08-06T01:09:05.839Z,74.08
2016-08-06T01:10:05.861Z,73.9
2016-08-06T01:11:05.873Z,74.08
2016-08-06T01:12:06.607Z,73.99
2016-08-06T01:13:05.924Z,73.13
2016-08-06T01:14:05.946Z,73.51
2016-08-06T01:15:05.973Z,73.32
2016-08-06T01:16:05.993Z,73.9
2016-08-06T01:17:06.018Z,73.7
2016-08-06T01:18:06.040Z,73.7
2016-08-06T01:19:06.066Z,73.32
2016-08-06T01:20:06.087Z,73.9
2016-08-06T01:21:06.127Z,73.99
2016-08-06T01:22:06.136Z,73.99
2016-08-06T01:23:06.215Z,73.7
2016-08-06T01:24:07.812Z,73.32
2016-08-06T01:25:06.207Z,73.99
2016-08-06T01:26:06.232Z,74.08
2016-08-06T01:27:06.291Z,73.9
2016-08-06T01:28:06.285Z,73.99
2016-08-06T01:29:06.304Z,73.61
2016-08-06T01:30:06.328Z,73.9
2016-08-06T01:31:06.352Z,73.22
2016-08-06T01:32:07.090Z,73.51
2016-08-06T01:33:06.571Z,73.9
2016-08-06T01:34:06.422Z,73.7
2016-08-06T01:35:06.469Z,73.8
2016-08-06T01:36:06.472Z,73.32
2016-08-06T01:37:06.495Z,73.41
2016-08-06T01:38:06.516Z,74.08
2016-08-06T01:39:06.539Z,73.9
2016-08-06T01:40:06.563Z,73.51
2016-08-06T01:41:06.587Z,73.99
2016-08-06T01:42:06.612Z,74.08
2016-08-06T01:43:06.634Z,74.37
2016-08-06T01:44:07.384Z,73.99
2016-08-06T01:45:06.682Z,74.85
2016-08-06T01:46:06.710Z,74.08
2016-08-06T01:47:06.732Z,73.99
2016-08-06T01:48:06.828Z,73.9
2016-08-06T01:49:06.780Z,73.99
2016-08-06T01:50:06.811Z,73.9
2016-08-06T01:51:06.830Z,73.99
2016-08-06T01:52:06.849Z,73.13
2016-08-06T01:53:06.879Z,73.22
2016-08-06T01:54:06.899Z,73.61
2016-08-06T01:55:06.921Z,73.99
2016-08-06T01:56:06.996Z,73.41
2016-08-06T01:57:07.123Z,73.32
2016-08-06T01:58:06.995Z,73.55
2016-08-06T01:59:07.726Z,73.93
2016-08-06T02:00:07.059Z,73.55
2016-08-06T02:01:07.066Z,73.07
2016-08-06T02:02:07.091Z,73.26
2016-08-06T02:03:07.162Z,73.65
2016-08-06T02:04:07.137Z,73.26
2016-08-06T02:05:07.160Z,73.26
2016-08-06T02:06:07.185Z,73.35
2016-08-06T02:07:07.920Z,73.35
2016-08-06T02:08:07.234Z,73.07
2016-08-06T02:09:07.264Z,73.74
2016-08-06T02:10:07.282Z,73.26
2016-08-06T02:11:07.306Z,73.26
2016-08-06T02:12:07.331Z,73.16
2016-08-06T02:13:07.369Z,73.55
2016-08-06T02:14:07.387Z,73.16
2016-08-06T02:15:07.400Z,72.78
2016-08-06T02:16:07.425Z,73.07
2016-08-06T02:17:07.446Z,73.45
2016-08-06T02:18:07.473Z,72.97
2016-08-06T02:19:07.498Z,73.55
2016-08-06T02:20:07.520Z,73.55
2016-08-06T02:21:07.543Z,73.45
2016-08-06T02:22:07.567Z,72.59
2016-08-06T02:23:07.593Z,72.78
2016-08-06T02:24:07.615Z,72.68
2016-08-06T02:25:07.640Z,72.59
2016-08-06T02:26:08.374Z,72.01
2016-08-06T02:27:07.690Z,72.97
2016-08-06T02:28:07.711Z,72.88
2016-08-06T02:29:07.735Z,73.26
2016-08-06T02:30:07.764Z,73.07
2016-08-06T02:31:08.493Z,72.97
2016-08-06T02:32:07.808Z,73.26
2016-08-06T02:33:07.832Z,73.07
2016-08-06T02:34:07.856Z,72.78
2016-08-06T02:35:07.882Z,73.07
2016-08-06T02:36:07.907Z,73.16
2016-08-06T02:37:07.926Z,72.97
2016-08-06T02:38:07.954Z,73.26
2016-08-06T02:39:07.990Z,72.88
2016-08-06T02:40:08.000Z,72.39
2016-08-06T02:41:08.032Z,72.78
2016-08-06T02:42:08.051Z,72.88
2016-08-06T02:43:08.073Z,73.26
2016-08-06T02:44:08.097Z,73.45
2016-08-06T02:45:08.830Z,73.26
2016-08-06T02:46:08.149Z,72.97
2016-08-06T02:47:08.173Z,72.78
2016-08-06T02:48:09.484Z,72.97
2016-08-06T02:49:09.288Z,72.78
2016-08-06T02:50:08.953Z,73.16
2016-08-06T02:51:08.304Z,72.88
2016-08-06T02:52:08.288Z,72.78
2016-08-06T02:53:08.329Z,72.88
2016-08-06T02:54:08.338Z,72.97
2016-08-06T02:55:08.370Z,72.97
2016-08-06T02:56:08.392Z,72.88
2016-08-06T02:57:08.414Z,72.68
2016-08-06T02:58:09.160Z,73.26
2016-08-06T02:59:08.461Z,73.07
2016-08-06T03:00:08.608Z,72.97
2016-08-06T03:01:08.507Z,72.59
2016-08-06T03:02:09.328Z,72.49
2016-08-06T03:03:08.562Z,72.97
2016-08-06T03:04:08.599Z,73.07
2016-08-06T03:05:08.606Z,72.68
2016-08-06T03:06:08.630Z,72.78
2016-08-06T03:07:08.654Z,73.35
2016-08-06T03:08:08.798Z,72.68
2016-08-06T03:09:08.703Z,72.78
2016-08-06T03:10:08.726Z,72.78
2016-08-06T03:11:09.575Z,72.78
2016-08-06T03:12:08.776Z,72.88
2016-08-06T03:13:08.799Z,72.49
2016-08-06T03:14:09.532Z,72.88
2016-08-06T03:15:08.850Z,72.49
2016-08-06T03:16:08.870Z,72.88
2016-08-06T03:17:08.911Z,72.97
2016-08-06T03:18:08.923Z,72.97
2016-08-06T03:19:08.944Z,72.68
2016-08-06T03:20:08.967Z,73.07
2016-08-06T03:21:08.991Z,72.97
2016-08-06T03:22:09.726Z,73.07
2016-08-06T03:23:09.038Z,73.26
2016-08-06T03:24:09.063Z,73.26
2016-08-06T03:25:09.090Z,73.35
2016-08-06T03:26:09.114Z,73.07
2016-08-06T03:27:09.137Z,73.16
2016-08-06T03:28:09.159Z,73.35
2016-08-06T03:29:09.893Z,73.35
2016-08-06T03:30:09.207Z,73.26
2016-08-06T03:31:09.230Z,73.16
2016-08-06T03:32:09.255Z,72.88
2016-08-06T03:33:09.284Z,72.59
2016-08-06T03:34:09.304Z,72.49
2016-08-06T03:35:09.328Z,73.16
2016-08-06T03:36:09.357Z,72.88
2016-08-06T03:37:09.378Z,73.16
2016-08-06T03:38:10.109Z,73.45
2016-08-06T03:39:09.426Z,72.97
2016-08-06T03:40:09.487Z,72.88
2016-08-06T03:41:09.482Z,72.68
2016-08-06T03:42:09.505Z,72.97
2016-08-06T03:43:09.521Z,72.68
2016-08-06T03:44:09.545Z,72.68
2016-08-06T03:45:10.285Z,73.16
2016-08-06T03:46:09.591Z,73.45
2016-08-06T03:47:09.618Z,73.55
2016-08-06T03:48:09.644Z,73.55
2016-08-06T03:49:09.667Z,73.74
2016-08-06T03:50:09.690Z,73.07
2016-08-06T03:51:09.733Z,73.45
2016-08-06T03:52:09.738Z,73.45
2016-08-06T03:53:09.765Z,73.55
2016-08-06T03:54:09.787Z,73.07
2016-08-06T03:55:09.812Z,72.88
2016-08-06T03:56:10.556Z,73.35
2016-08-06T03:57:09.861Z,73.16
2016-08-06T03:58:09.882Z,73.83
2016-08-06T03:59:09.907Z,73.26
2016-08-06T04:00:10.649Z,73.83
2016-08-06T04:01:09.955Z,73.74
2016-08-06T04:02:09.978Z,73.45
2016-08-06T04:03:10.053Z,73.16
2016-08-06T04:04:10.027Z,73.26
2016-08-06T04:05:10.073Z,73.16
2016-08-06T04:06:10.077Z,72.97
2016-08-06T04:07:10.099Z,73.35
2016-08-06T04:08:10.126Z,72.97
2016-08-06T04:09:10.856Z,73.35
2016-08-06T04:10:10.173Z,73.45
2016-08-06T04:11:10.197Z,73.16
2016-08-06T04:12:10.219Z,73.74
2016-08-06T04:13:10.245Z,73.55
2016-08-06T04:14:10.268Z,73.45
2016-08-06T04:15:10.292Z,73.93
2016-08-06T04:16:10.318Z,73.65
2016-08-06T04:17:10.341Z,73.16
2016-08-06T04:18:10.364Z,73.55
2016-08-06T04:19:10.402Z,73.65
2016-08-06T04:20:10.414Z,73.55
2016-08-06T04:21:10.436Z,73.74
2016-08-06T04:22:10.462Z,73.74
2016-08-06T04:23:10.485Z,73.93
2016-08-06T04:24:10.507Z,73.55
2016-08-06T04:25:10.533Z,73.26
2016-08-06T04:26:11.269Z,73.07
2016-08-06T04:27:10.581Z,73.45
2016-08-06T04:28:10.605Z,72.88
2016-08-06T04:29:11.339Z,73.55
2016-08-06T04:30:10.653Z,73.65
2016-08-06T04:31:10.677Z,73.55
2016-08-06T04:32:11.412Z,73.16
2016-08-06T04:33:10.727Z,73.16
2016-08-06T04:34:10.748Z,73.16
2016-08-06T04:35:10.777Z,73.93
2016-08-06T04:36:10.803Z,73.16
2016-08-06T04:37:10.823Z,73.83
2016-08-06T04:38:11.558Z,73.65
2016-08-06T04:39:11.584Z,73.45
2016-08-06T04:40:10.895Z,73.55
2016-08-06T04:41:10.921Z,73.16
2016-08-06T04:42:10.941Z,72.97
2016-08-06T04:43:11.676Z,73.07
2016-08-06T04:44:11.007Z,73.35
2016-08-06T04:45:11.016Z,73.93
2016-08-06T04:47:11.774Z,74.12
2016-08-06T04:48:11.092Z,74.02
2016-08-06T04:49:11.111Z,73.93
2016-08-06T04:50:11.138Z,74.02
2016-08-06T04:51:11.157Z,73.65
2016-08-06T04:52:11.187Z,73.55
2016-08-06T04:53:11.209Z,73.93
2016-08-06T04:54:11.233Z,73.83
2016-08-06T04:55:11.256Z,74.02
2016-08-06T04:56:11.280Z,73.74
2016-08-06T04:57:11.303Z,73.55
2016-08-06T04:58:11.336Z,73.26
2016-08-06T04:59:12.062Z,73.45
2016-08-06T05:00:11.378Z,73.26
2016-08-06T05:01:11.399Z,73.3
2016-08-06T05:02:11.424Z,73
2016-08-06T05:03:11.448Z,72.78
2016-08-06T05:04:12.183Z,73.3
2016-08-06T05:05:11.494Z,73.39
2016-08-06T05:06:11.520Z,73.2
2016-08-06T05:07:11.566Z,72.91
2016-08-06T05:08:11.569Z,73
2016-08-06T05:09:11.592Z,73
2016-08-06T05:10:11.620Z,72.91
2016-08-06T05:11:11.640Z,73.3
2016-08-06T05:12:11.665Z,73.07
2016-08-06T05:13:11.690Z,73.49
2016-08-06T05:14:11.714Z,73.77
2016-08-06T05:15:11.744Z,73.39
2016-08-06T05:16:11.763Z,73.3
2016-08-06T05:17:11.787Z,73.97
2016-08-06T05:18:11.813Z,73.58
2016-08-06T05:19:11.834Z,73.49
2016-08-06T05:20:11.859Z,73.77
2016-08-06T05:21:11.883Z,73.2
2016-08-06T05:22:11.926Z,73.1
2016-08-06T05:23:11.939Z,73.39
2016-08-06T05:24:11.958Z,73.39
2016-08-06T05:25:11.983Z,73.49
2016-08-06T05:26:12.005Z,73.49
2016-08-06T05:27:12.030Z,73
2016-08-06T05:28:12.054Z,73.2
2016-08-06T05:29:12.786Z,73.49
2016-08-06T05:30:12.105Z,73.2
2016-08-06T05:31:12.133Z,73.3
2016-08-06T05:32:12.152Z,73.14
2016-08-06T05:33:12.175Z,73.52
2016-08-06T05:34:12.202Z,72.43
2016-08-06T05:35:12.228Z,73.49
2016-08-06T05:36:12.249Z,73.33
2016-08-06T05:37:12.281Z,73.33
2016-08-06T05:38:12.299Z,72.43
2016-08-06T05:39:12.325Z,73.04
2016-08-06T05:40:12.347Z,73.33
2016-08-06T05:41:12.373Z,73.58
2016-08-06T05:42:12.395Z,73.43
2016-08-06T05:43:13.136Z,73.04
2016-08-06T05:44:12.448Z,72.95
2016-08-06T05:45:12.485Z,73.24
2016-08-06T05:46:12.498Z,73.24
2016-08-06T05:47:12.518Z,72.95
2016-08-06T05:48:13.268Z,73.43
2016-08-06T05:49:12.569Z,73.52
2016-08-06T05:50:12.593Z,73.33
2016-08-06T05:51:12.618Z,73.24
2016-08-06T05:52:12.643Z,73.24
2016-08-06T05:53:12.672Z,73.43
2016-08-06T05:54:12.716Z,73.24
2016-08-06T05:55:13.427Z,73.24
2016-08-06T05:56:12.745Z,73.14
2016-08-06T05:57:12.765Z,72.89
2016-08-06T05:58:12.792Z,72.18
2016-08-06T05:59:12.817Z,72.18
2016-08-06T06:00:12.840Z,72.85
2016-08-06T06:01:12.871Z,72.95
2016-08-06T06:02:12.890Z,72.56
2016-08-06T06:03:12.912Z,72.5
2016-08-06T06:04:12.938Z,72.18
2016-08-06T06:05:12.963Z,72.41
2016-08-06T06:06:12.990Z,72.41
2016-08-06T06:07:13.012Z,72.69
2016-08-06T06:08:13.039Z,72.89
2016-08-06T06:09:13.075Z,72.12
2016-08-06T06:10:13.089Z,72.6
2016-08-06T06:11:13.117Z,72.99
2016-08-06T06:12:13.140Z,72.5
2016-08-06T06:13:13.162Z,72.12
2016-08-06T06:14:13.190Z,72.79
2016-08-06T06:15:13.213Z,72.12
2016-08-06T06:16:13.240Z,72.22
2016-08-06T06:17:13.262Z,72.12
2016-08-06T06:18:13.305Z,73.08
2016-08-06T06:19:13.314Z,72.73
2016-08-06T06:20:13.340Z,72.16
2016-08-06T06:21:13.361Z,72.41
2016-08-06T06:22:13.388Z,72.25
2016-08-06T06:23:13.413Z,72.54
2016-08-06T06:24:13.438Z,72.25
2016-08-06T06:25:13.473Z,71.67
2016-08-06T06:26:13.490Z,70.9
2016-08-06T06:27:13.514Z,70.62
2016-08-06T06:28:13.540Z,70.62
2016-08-06T06:29:14.276Z,70.9
2016-08-06T06:30:13.589Z,71.19
2016-08-06T06:31:13.615Z,72.16
2016-08-06T06:32:13.642Z,72.16
2016-08-06T06:33:13.667Z,72.34
2016-08-06T06:34:13.691Z,71.77
2016-08-06T06:35:13.716Z,71.81
2016-08-06T06:36:13.742Z,71.71
2016-08-06T06:37:13.769Z,70.37
2016-08-06T06:38:13.792Z,69.89
2016-08-06T06:39:13.825Z,70.84
2016-08-06T06:40:13.856Z,71.23
2016-08-06T06:41:13.868Z,70.56
2016-08-06T06:42:13.894Z,70.56
2016-08-06T06:43:13.922Z,70.75
2016-08-06T06:44:14.656Z,70.46
2016-08-06T06:45:13.971Z,70.46
2016-08-06T06:46:14.706Z,70.3
2016-08-06T06:47:14.023Z,70.17
2016-08-06T06:48:14.076Z,69.98
2016-08-06T06:49:14.079Z,70.11
2016-08-06T06:50:14.099Z,70.4
2016-08-06T06:51:14.126Z,70.78
2016-08-06T06:52:14.160Z,70.98
2016-08-06T06:53:14.178Z,70.88
2016-08-06T06:54:14.201Z,71.55
2016-08-06T06:55:14.228Z,70.59
2016-08-06T06:56:14.253Z,70.11
2016-08-06T06:57:14.297Z,69.53
2016-08-06T06:58:15.018Z,68.19
2016-08-06T06:59:14.332Z,68.9
2016-08-06T07:00:14.375Z,68.99
2016-08-06T07:01:14.387Z,69.47
2016-08-06T07:02:14.409Z,69.18
2016-08-06T07:03:14.442Z,69.38
2016-08-06T07:04:14.473Z,69.18
2016-08-06T07:05:14.489Z,69.85
2016-08-06T07:06:14.513Z,69.38
2016-08-06T07:07:14.539Z,69.18
2016-08-06T07:08:14.564Z,67.93
2016-08-06T07:09:14.592Z,68.6
2016-08-06T07:10:14.624Z,68.32
2016-08-06T07:11:14.647Z,68.03
2016-08-06T07:12:14.675Z,68.22
2016-08-06T07:13:14.700Z,67.65
2016-08-06T07:14:14.722Z,68.22
2016-08-06T07:15:14.753Z,68.22
2016-08-06T07:16:14.777Z,67.93
2016-08-06T07:17:14.823Z,68.03
2016-08-06T07:18:14.828Z,67.07
2016-08-06T07:19:14.855Z,65.91
2016-08-06T07:20:14.884Z,66.78
2016-08-06T07:21:15.618Z,67.35
2016-08-06T07:22:14.937Z,67.35
2016-08-06T07:23:14.969Z,67.74
2016-08-06T07:24:15.696Z,67.93
2016-08-06T07:25:15.013Z,67.93
2016-08-06T07:26:15.042Z,67.26
2016-08-06T07:27:15.778Z,66.97
2016-08-06T07:28:15.094Z,66.81
2016-08-06T07:29:15.121Z,66.62
2016-08-06T07:30:15.144Z,66.62
2016-08-06T07:31:15.173Z,67.19
2016-08-06T07:32:15.198Z,67.39
2016-08-06T07:33:15.225Z,67.19
2016-08-06T07:34:15.251Z,65.08
2016-08-06T07:35:15.277Z,65.66
2016-08-06T07:36:15.308Z,66.33
2016-08-06T07:37:15.331Z,66.42
2016-08-06T07:38:15.376Z,66.36
2016-08-06T07:39:15.387Z,64.43
2016-08-06T07:40:15.422Z,63.38
2016-08-06T07:41:15.435Z,64.43
2016-08-06T07:42:15.464Z,64.43
2016-08-06T07:43:16.199Z,64.73
2016-08-06T07:44:15.527Z,64.92
2016-08-06T07:45:15.544Z,67.13
2016-08-06T07:46:15.570Z,66.65
2016-08-06T07:47:15.595Z,65.88
2016-08-06T07:48:15.625Z,64.63
2016-08-06T07:49:15.650Z,63.57
2016-08-06T07:50:15.679Z,64.82
2016-08-06T07:51:15.703Z,63.47
2016-08-06T07:52:15.744Z,64.05
2016-08-06T07:53:15.757Z,63.79
2016-08-06T07:54:15.784Z,62.41
2016-08-06T07:55:15.813Z,62.7
2016-08-06T07:56:15.841Z,62.73
2016-08-06T07:57:15.864Z,62.32
2016-08-06T07:58:15.899Z,62.45
2016-08-06T07:59:15.921Z,62.54
2016-08-06T08:00:15.961Z,61.29
2016-08-06T08:01:15.981Z,61.96
2016-08-06T08:02:16.003Z,61.41
2016-08-06T08:03:16.077Z,60.86
2016-08-06T08:04:16.054Z,60
2016-08-06T08:05:16.083Z,59.06
2016-08-06T08:06:16.109Z,58.77
2016-08-06T08:07:16.142Z,59.16
2016-08-06T08:08:16.184Z,60.03
2016-08-06T08:09:16.197Z,60.22
2016-08-06T08:10:16.929Z,59.9
2016-08-06T08:11:16.248Z,60.68
2016-08-06T08:12:16.275Z,61.06
2016-08-06T08:13:16.301Z,58.65
2016-08-06T08:14:16.329Z,59.13
2016-08-06T08:15:16.355Z,58.36
2016-08-06T08:16:16.394Z,58.75
2016-08-06T08:17:16.422Z,57.01
2016-08-06T08:18:16.437Z,57.07
2016-08-06T08:19:16.464Z,58.23
2016-08-06T08:20:16.492Z,58.91
2016-08-06T08:21:16.521Z,59
2016-08-06T08:22:16.548Z,59.97
2016-08-06T08:23:16.574Z,59.42
2016-08-06T08:24:16.613Z,59.71
2016-08-06T08:25:16.632Z,60.1
2016-08-06T08:26:17.378Z,60.1
2016-08-06T08:27:16.686Z,59.8
2016-08-06T08:28:16.711Z,59.23
2016-08-06T08:29:16.742Z,60.1
2016-08-06T08:30:16.772Z,60.58
2016-08-06T08:31:16.796Z,59.83
2016-08-06T08:33:16.855Z,59.06
2016-08-06T08:34:16.878Z,59.55
2016-08-06T08:35:16.908Z,59.16
2016-08-06T08:36:16.936Z,59.74
2016-08-06T08:37:17.672Z,59.06
2016-08-06T08:38:16.990Z,60.13
2016-08-06T08:39:17.017Z,59.55
2016-08-06T08:40:17.047Z,58.19
2016-08-06T08:41:17.073Z,56.74
2016-08-06T08:42:17.102Z,57.23
2016-08-06T08:43:17.127Z,58
2016-08-06T08:44:17.155Z,57.81
2016-08-06T08:45:17.185Z,58
2016-08-06T08:46:17.214Z,58
2016-08-06T08:48:17.270Z,56.65
2016-08-06T08:49:17.295Z,57.62
2016-08-06T08:50:17.327Z,57.9
2016-08-06T08:51:17.351Z,58.29
2016-08-06T08:52:17.386Z,59.06
2016-08-06T08:53:18.115Z,58.87
2016-08-06T08:54:17.447Z,56.94
2016-08-06T08:55:17.463Z,56.56
2016-08-06T08:56:17.491Z,59.06
2016-08-06T08:57:17.519Z,60.31
2016-08-06T08:58:17.546Z,57.42
2016-08-06T08:59:17.578Z,57.32
2016-08-06T09:00:17.601Z,58.48
2016-08-06T09:01:17.631Z,58
2016-08-06T09:03:18.405Z,57.64
2016-08-06T09:04:17.718Z,58.1
2016-08-06T09:05:17.740Z,54.72
2016-08-06T09:06:17.768Z,54.27
2016-08-06T09:07:17.798Z,54.62
2016-08-06T09:08:18.536Z,55.88
2016-08-06T09:09:17.904Z,56.56
2016-08-06T09:10:17.880Z,56.46
2016-08-06T09:11:17.907Z,56.39
2016-08-06T09:12:17.935Z,56.56
2016-08-06T09:13:17.985Z,57.23
2016-08-06T09:14:18.010Z,55.9
2016-08-06T09:15:18.021Z,55.04
2016-08-06T09:16:18.050Z,55.01
2016-08-06T09:17:18.076Z,55.1
2016-08-06T09:18:18.106Z,55.78
2016-08-06T09:19:18.136Z,56.07
2016-08-06T09:20:18.163Z,55.68
2016-08-06T09:21:18.202Z,56.36
2016-08-06T09:22:18.216Z,56.26
2016-08-06T09:23:18.249Z,55.78
2016-08-06T09:24:18.275Z,56.46
2016-08-06T09:25:18.304Z,55.68
2016-08-06T09:26:18.329Z,56.26
2016-08-06T09:27:18.358Z,56.16
2016-08-06T09:28:18.407Z,56.74
2016-08-06T09:29:18.419Z,56.46
2016-08-06T09:30:18.440Z,56.36
2016-08-06T09:31:18.469Z,56.74
2016-08-06T09:32:18.502Z,56.26
2016-08-06T09:33:18.527Z,57.9
2016-08-06T09:34:18.552Z,58
2016-08-06T09:35:18.584Z,57.9
2016-08-06T09:36:18.624Z,58
2016-08-06T09:37:18.637Z,57.81
2016-08-06T09:38:18.666Z,56.94
2016-08-06T09:39:18.693Z,55.88
2016-08-06T09:40:18.730Z,55.98
2016-08-06T09:41:18.749Z,55.78
2016-08-06T09:42:18.774Z,55.88
2016-08-06T09:43:18.807Z,56.26
2016-08-06T09:44:18.840Z,56.48
2016-08-06T09:45:19.570Z,55.42
2016-08-06T09:46:18.887Z,55.71
2016-08-06T09:47:18.914Z,56.48
2016-08-06T09:48:18.943Z,56.87
2016-08-06T09:49:18.972Z,56.77
2016-08-06T09:50:18.999Z,57.26
2016-08-06T09:51:19.034Z,57.74
2016-08-06T09:52:19.057Z,56.77
2016-08-06T09:53:19.089Z,56.61
2016-08-06T09:54:19.821Z,56.39
2016-08-06T09:55:19.139Z,56.13
2016-08-06T09:56:19.170Z,55.65
2016-08-06T09:57:19.198Z,55.93
2016-08-06T09:58:19.223Z,56.51
2016-08-06T09:59:19.252Z,55.55
2016-08-06T10:00:19.288Z,54.97
2016-08-06T10:01:19.331Z,55.29
2016-08-06T10:02:19.337Z,52.48
2016-08-06T10:03:19.367Z,50.84
2016-08-06T10:04:19.393Z,51.81
2016-08-06T10:05:19.429Z,52.39
2016-08-06T10:06:19.451Z,53.45
2016-08-06T10:07:19.501Z,54.71
2016-08-06T10:08:19.512Z,55.96
2016-08-06T10:09:19.536Z,55.09
2016-08-06T10:10:19.567Z,53.28
2016-08-06T10:11:19.596Z,52.61
2016-08-06T10:12:19.623Z,51.73
2016-08-06T10:13:19.654Z,49.51
2016-08-06T10:14:20.403Z,50.57
2016-08-06T10:15:19.710Z,50.76
2016-08-06T10:16:19.739Z,49.7
2016-08-06T10:17:19.771Z,48.06
2016-08-06T10:18:19.814Z,47.96
2016-08-06T10:19:20.538Z,47.77
2016-08-06T10:20:20.563Z,49.02
2016-08-06T10:21:19.891Z,49.99
2016-08-06T10:22:19.914Z,49.82
2016-08-06T10:23:19.943Z,50.21
2016-08-06T10:24:19.973Z,50.02
2016-08-06T10:25:20.019Z,50.02
2016-08-06T10:26:20.031Z,50.89
2016-08-06T10:27:20.059Z,50.5
2016-08-06T10:28:20.087Z,50.21
2016-08-06T10:29:20.119Z,50.24
2016-08-06T10:30:20.149Z,50.92
2016-08-06T10:31:20.176Z,50.24
2016-08-06T10:32:20.204Z,48.59
2016-08-06T10:33:20.241Z,49.27
2016-08-06T10:34:20.265Z,49.87
2016-08-06T10:35:21.009Z,51.81
2016-08-06T10:36:20.321Z,49.77
2016-08-06T10:37:21.061Z,48.88
2016-08-06T10:38:20.383Z,48.2
2016-08-06T10:39:20.413Z,48.59
2016-08-06T10:40:20.447Z,47.43
2016-08-06T10:41:20.472Z,45.61
2016-08-06T10:42:20.500Z,46.67
2016-08-06T10:43:20.529Z,45.4
2016-08-06T10:44:20.564Z,44.84
2016-08-06T10:45:20.588Z,45.13
2016-08-06T10:46:20.620Z,45.9
2016-08-06T10:47:20.648Z,48.13
2016-08-06T10:48:21.401Z,48.13
2016-08-06T10:49:20.729Z,46.77
2016-08-06T10:50:20.739Z,47.62
2016-08-06T10:51:20.766Z,48.79
2016-08-06T10:52:20.796Z,48.97
2016-08-06T10:53:20.827Z,49.85
2016-08-06T10:54:20.859Z,49.75
2016-08-06T10:55:20.885Z,50.72
2016-08-06T10:56:20.922Z,52.34
2016-08-06T10:57:21.655Z,51.18
2016-08-06T10:58:20.977Z,50.6
2016-08-06T10:59:21.011Z,52.34
2016-08-06T11:00:21.044Z,53.69
2016-08-06T11:01:21.772Z,50.86
2016-08-06T11:02:21.090Z,51.83
2016-08-06T11:03:21.118Z,52.12
2016-08-06T11:04:21.151Z,51.54
2016-08-06T11:05:21.179Z,51.64
2016-08-06T11:06:21.209Z,52.22
2016-08-06T11:07:21.235Z,52.7
2016-08-06T11:08:21.974Z,53.45
2016-08-06T11:09:22.004Z,52.89
2016-08-06T11:10:21.325Z,52.97
2016-08-06T11:11:21.372Z,52.99
2016-08-06T11:12:21.381Z,52.87
2016-08-06T11:13:21.410Z,52
2016-08-06T11:14:22.703Z,53.64
2016-08-06T11:15:21.484Z,51.81
2016-08-06T11:16:21.501Z,53.74
2016-08-06T11:17:21.527Z,52.87
2016-08-06T11:18:21.558Z,52.67
2016-08-06T11:19:21.583Z,53.93
2016-08-06T11:20:21.613Z,54.03
2016-08-06T11:21:21.643Z,52.39
2016-08-06T11:22:21.705Z,52.97
2016-08-06T11:23:21.702Z,52.48
2016-08-06T11:24:21.731Z,52.48
2016-08-06T11:25:21.756Z,53.03
2016-08-06T11:26:21.785Z,52.84
2016-08-06T11:27:21.815Z,54.1
2016-08-06T11:28:21.841Z,53.81
2016-08-06T11:29:21.876Z,54.68
2016-08-06T11:30:21.912Z,54.87
2016-08-06T11:31:22.823Z,55.65
2016-08-06T11:32:21.957Z,55.83
2016-08-06T11:33:21.986Z,53.42
2016-08-06T11:34:22.409Z,52.84
2016-08-06T11:35:22.043Z,53.81
2016-08-06T11:36:22.074Z,55.65
2016-08-06T11:37:22.102Z,53.61
2016-08-06T11:38:22.130Z,52.26
2016-08-06T11:39:22.156Z,52.07
2016-08-06T11:40:22.194Z,52.17
2016-08-06T11:41:22.212Z,52.75
2016-08-06T11:42:22.241Z,52.94
2016-08-06T11:43:22.269Z,52.84
2016-08-06T11:44:22.300Z,53.81
2016-08-06T11:45:22.330Z,54.97
2016-08-06T11:46:22.355Z,53.81
2016-08-06T11:47:22.411Z,52.36
2016-08-06T11:48:22.413Z,51.01
2016-08-06T11:49:23.158Z,50.81
2016-08-06T11:50:22.468Z,51.2
2016-08-06T11:51:22.498Z,50.71
2016-08-06T11:52:22.525Z,54.97
2016-08-06T11:53:22.555Z,56.71
2016-08-06T11:54:23.292Z,56.51
2016-08-06T11:55:22.630Z,53.71
2016-08-06T11:56:22.654Z,52.75
2016-08-06T11:57:22.667Z,51.68
2016-08-06T11:58:22.745Z,50.91
2016-08-06T11:59:22.725Z,51.29
2016-08-06T12:00:22.759Z,51.49
2016-08-06T12:01:22.783Z,51.39
2016-08-06T12:02:22.810Z,52.36
2016-08-06T12:03:23.598Z,52.09
2016-08-06T12:04:22.868Z,52.55
2016-08-06T12:05:22.894Z,52.39
2016-08-06T12:06:22.932Z,52.39
2016-08-06T12:07:22.958Z,53.35
2016-08-06T12:08:22.980Z,53.64
2016-08-06T12:09:23.011Z,51.61
2016-08-06T12:10:23.050Z,51.13
2016-08-06T12:11:23.068Z,52
2016-08-06T12:12:23.097Z,52.87
2016-08-06T12:13:23.124Z,54.61
2016-08-06T12:14:23.153Z,54.51
2016-08-06T12:15:23.185Z,56.15
2016-08-06T12:16:23.220Z,54.99
2016-08-06T12:17:23.238Z,54.51
2016-08-06T12:18:23.267Z,53.74
2016-08-06T12:19:23.299Z,55.29
2016-08-06T12:20:23.326Z,52.29
2016-08-06T12:21:23.353Z,52.58
2016-08-06T12:22:23.384Z,53.55
2016-08-06T12:23:23.414Z,52.48
2016-08-06T12:24:23.438Z,54.51
2016-08-06T12:25:23.468Z,55.29
2016-08-06T12:26:23.499Z,54.51
2016-08-06T12:27:23.528Z,53.83
2016-08-06T12:28:23.556Z,55.09
2016-08-06T12:29:24.293Z,55.96
2016-08-06T12:30:23.614Z,54.71
2016-08-06T12:31:23.644Z,53.83
2016-08-06T12:32:25.028Z,55.67
2016-08-06T12:33:24.790Z,52.97
2016-08-06T12:34:24.441Z,53.25
2016-08-06T12:35:25.026Z,53.81
2016-08-06T12:36:23.806Z,53.16
2016-08-06T12:37:23.824Z,52.39
2016-08-06T12:38:23.844Z,51.87
2016-08-06T12:39:23.870Z,51.59
2016-08-06T12:40:24.134Z,50.81
2016-08-06T12:41:23.933Z,51.97
2016-08-06T12:42:23.958Z,51.78
2016-08-06T12:43:23.986Z,51.2
2016-08-06T12:44:24.025Z,53.71
2016-08-06T12:45:24.049Z,54.97
2016-08-06T12:46:24.781Z,53.91
2016-08-06T12:47:24.100Z,52.94
2016-08-06T12:48:24.130Z,52.55
2016-08-06T12:49:24.157Z,51.87
2016-08-06T12:50:24.326Z,52.65
2016-08-06T12:51:24.228Z,53.81
2016-08-06T12:52:25.076Z,54.77
2016-08-06T12:53:25.117Z,55.07
2016-08-06T12:54:24.303Z,53.61
2016-08-06T12:55:25.174Z,55.65
2016-08-06T12:56:24.371Z,55.93
2016-08-06T12:57:24.386Z,56.13
2016-08-06T12:58:25.155Z,54.22
2016-08-06T12:59:24.447Z,54.61
2016-08-06T13:00:24.474Z,52.29
2016-08-06T13:01:24.507Z,49.1
2016-08-06T13:02:24.534Z,49.19